Time,TemperatureF,DewpointF,PressureIn,WindDirection,WindDirectionDegrees,WindSpeedMPH,WindSpeedGustMPH,Humidity,HourlyPrecipIn,Conditions,Clouds,dailyrainin,SoftwareType,DateUTC
2014-01-09 00:00:00,-25.0,-32.1,30.50,South,180,0.0,1.0,68,0.00,,,-99.99,Weather View 32 v60,2014-01-09 06:00:00,
2014-01-09 00:05:00,-25.0,-32.1,30.50,SSW,202,0.0,1.0,68,0.00,,,-99.99,Weather View 32 v60,2014-01-09 06:05:00,
2014-01-09 00:10:00,-25.0,-32.1,30.50,SW,225,0.0,1.0,68,0.00,,,-99.99,Weather View 32 v60,2014-01-09 06:10:00,
2014-01-09 00:15:00,-26.0,-33.0,30.50,South,180,0.0,3.0,68,0.00,,,-99.99,Weather View 32 v60,2014-01-09 06:15:00,
2014-01-09 00:20:00,-26.0,-33.0,30.50,SSW,202,0.0,3.0,68,0.00,,,-99.99,Weather View 32 v60,2014-01-09 06:20:00,
2014-01-09 00:25:00,-26.0,-33.0,30.50,SSE,158,0.0,3.0,68,0.00,,,-99.99,Weather View 32 v60,2014-01-09 06:25:00,
2014-01-09 00:30:00,-26.0,-33.0,30.50,SSW,202,0.0,3.0,68,0.00,,,-99.99,Weather View 32 v60,2014-01-09 06:30:00,
2014-01-09 00:35:00,-26.0,-33.0,30.50,SSE,158,0.0,3.0,68,0.00,,,-99.99,Weather View 32 v60,2014-01-09 06:35:00,
2014-01-09 00:40:00,-26.0,-33.0,30.50,SSW,202,0.0,3.0,68,0.00,,,-99.99,Weather View 32 v60,2014-01-09 06:40:00,
2014-01-09 00:45:00,-26.0,-33.0,30.50,South,180,0.0,3.0,68,0.00,,,-99.99,Weather View 32 v60,2014-01-09 06:45:00,
2014-01-09 00:50:00,-26.0,-33.0,30.50,NNW,338,0.0,3.0,68,0.00,,,-99.99,Weather View 32 v60,2014-01-09 06:50:00,
2014-01-09 00:55:00,-27.0,-34.0,30.50,SSW,202,0.0,3.0,68,0.00,,,-99.99,Weather View 32 v60,2014-01-09 06:55:00,
2014-01-09 01:00:00,-27.0,-34.0,30.49,SW,225,0.0,3.0,68,0.00,,,-99.99,Weather View 32 v60,2014-01-09 07:00:00,
2014-01-09 01:05:00,-27.0,-34.0,30.50,SSW,202,0.0,3.0,68,0.00,,,-99.99,Weather View 32 v60,2014-01-09 07:05:00,
2014-01-09 01:10:00,-27.0,-34.0,30.50,SW,225,0.0,3.0,68,0.00,,,-99.99,Weather View 32 v60,2014-01-09 07:10:00,
2014-01-09 01:15:00,-27.0,-34.0,30.50,SSW,202,0.0,2.0,68,0.00,,,-99.99,Weather View 32 v60,2014-01-09 07:15:00,
2014-01-09 01:20:00,-27.0,-33.7,30.50,SW,225,0.0,1.0,69,0.00,,,-99.99,Weather View 32 v60,2014-01-09 07:20:00,
2014-01-09 01:25:00,-27.0,-33.7,30.49,SSW,202,0.0,1.0,69,0.00,,,-99.99,Weather View 32 v60,2014-01-09 07:25:00,
2014-01-09 01:30:00,-27.0,-33.7,30.49,SSW,202,0.0,1.0,69,0.00,,,-99.99,Weather View 32 v60,2014-01-09 07:30:00,
2014-01-09 01:35:00,-27.0,-33.7,30.49,SW,225,0.0,1.0,69,0.00,,,-99.99,Weather View 32 v60,2014-01-09 07:35:00,
2014-01-09 01:40:00,-27.0,-33.7,30.49,SW,225,0.0,1.0,69,0.00,,,-99.99,Weather View 32 v60,2014-01-09 07:40:00,
2014-01-09 01:45:00,-27.0,-33.7,30.48,SSW,202,0.0,1.0,69,0.00,,,-99.99,Weather View 32 v60,2014-01-09 07:45:00,
2014-01-09 01:50:00,-27.0,-33.7,30.48,SW,225,0.0,3.0,69,0.00,,,-99.99,Weather View 32 v60,2014-01-09 07:50:00,
2014-01-09 01:55:00,-26.0,-32.8,30.48,SSE,158,0.0,3.0,69,0.00,,,-99.99,Weather View 32 v60,2014-01-09 07:55:00,
2014-01-09 02:00:00,-26.0,-32.8,30.47,SE,135,0.0,3.0,69,0.00,,,-99.99,Weather View 32 v60,2014-01-09 08:00:00,
2014-01-09 02:05:00,-26.0,-32.8,30.47,SSW,202,0.0,4.0,69,0.00,,,-99.99,Weather View 32 v60,2014-01-09 08:05:00,
2014-01-09 02:10:00,-26.0,-32.5,30.48,SSW,202,0.0,4.0,70,0.00,,,-99.99,Weather View 32 v60,2014-01-09 08:10:00,
2014-01-09 02:15:00,-26.0,-32.5,30.47,SSW,202,0.0,4.0,70,0.00,,,-99.99,Weather View 32 v60,2014-01-09 08:15:00,
2014-01-09 02:20:00,-25.0,-31.5,30.46,SSE,158,0.0,6.0,70,0.00,,,-99.99,Weather View 32 v60,2014-01-09 08:20:00,
2014-01-09 02:25:00,-24.0,-30.6,30.45,SSW,202,4.0,9.0,70,0.00,,,-99.99,Weather View 32 v60,2014-01-09 08:25:00,
2014-01-09 02:30:00,-22.0,-28.1,30.44,SSE,158,6.0,9.0,72,0.00,,,-99.99,Weather View 32 v60,2014-01-09 08:30:00,
2014-01-09 02:35:00,-19.0,-25.0,30.44,SSW,202,0.0,9.0,73,0.00,,,-99.99,Weather View 32 v60,2014-01-09 08:35:00,
2014-01-09 02:40:00,-18.0,-24.3,30.44,South,180,0.0,9.0,72,0.00,,,-99.99,Weather View 32 v60,2014-01-09 08:40:00,
2014-01-09 02:45:00,-18.0,-24.3,30.44,South,180,0.0,9.0,72,0.00,,,-99.99,Weather View 32 v60,2014-01-09 08:45:00,
2014-01-09 02:50:00,-17.0,-23.6,30.44,SW,225,0.0,9.0,71,0.00,,,-99.99,Weather View 32 v60,2014-01-09 08:50:00,
2014-01-09 02:55:00,-17.0,-23.6,30.42,South,180,3.0,9.0,71,0.00,,,-99.99,Weather View 32 v60,2014-01-09 08:55:00,
2014-01-09 03:00:00,-17.0,-23.3,30.41,SSW,202,0.0,9.0,72,0.00,,,-99.99,Weather View 32 v60,2014-01-09 09:00:00,
2014-01-09 03:05:00,-15.0,-21.1,30.45,NNW,338,5.0,9.0,73,0.00,,,-99.99,Weather View 32 v60,2014-01-09 09:05:00,
2014-01-09 03:10:00,-14.0,-19.9,30.45,WNW,292,0.0,9.0,74,0.00,,,-99.99,Weather View 32 v60,2014-01-09 09:10:00,
2014-01-09 03:15:00,-13.0,-18.9,30.45,WSW,248,0.0,9.0,74,0.00,,,-99.99,Weather View 32 v60,2014-01-09 09:15:00,
2014-01-09 03:20:00,-12.0,-17.9,30.44,WNW,292,1.0,9.0,74,0.00,,,-99.99,Weather View 32 v60,2014-01-09 09:20:00,
2014-01-09 03:25:00,-12.0,-17.9,30.43,SW,225,0.0,9.0,74,0.00,,,-99.99,Weather View 32 v60,2014-01-09 09:25:00,
2014-01-09 03:30:00,-11.0,-17.0,30.43,NW,315,0.0,9.0,74,0.00,,,-99.99,Weather View 32 v60,2014-01-09 09:30:00,
2014-01-09 03:35:00,-11.0,-17.0,30.43,WSW,248,0.0,9.0,74,0.00,,,-99.99,Weather View 32 v60,2014-01-09 09:35:00,
2014-01-09 03:40:00,-10.0,-16.0,30.42,SSW,202,0.0,9.0,74,0.00,,,-99.99,Weather View 32 v60,2014-01-09 09:40:00,
2014-01-09 03:50:00,-10.0,-16.0,30.42,SSW,202,0.0,9.0,74,0.00,,,-99.99,Weather View 32 v60,2014-01-09 09:50:00,
2014-01-09 03:55:00,-10.0,-16.0,30.42,SW,225,0.0,9.0,74,0.00,,,-99.99,Weather View 32 v60,2014-01-09 09:55:00,
2014-01-09 04:00:00,-9.0,-15.0,30.42,WNW,292,0.0,8.0,74,0.00,,,-99.99,Weather View 32 v60,2014-01-09 10:00:00,
2014-01-09 04:05:00,-9.0,-15.0,30.41,SSW,202,0.0,8.0,74,0.00,,,-99.99,Weather View 32 v60,2014-01-09 10:05:00,
2014-01-09 04:10:00,-9.0,-15.0,30.41,WSW,248,0.0,3.0,74,0.00,,,-99.99,Weather View 32 v60,2014-01-09 10:10:00,
2014-01-09 04:15:00,-9.0,-15.0,30.40,South,180,0.0,3.0,74,0.00,,,-99.99,Weather View 32 v60,2014-01-09 10:15:00,
2014-01-09 04:20:00,-9.0,-15.0,30.41,West,270,0.0,3.0,74,0.00,,,-99.99,Weather View 32 v60,2014-01-09 10:20:00,
2014-01-09 04:25:00,-8.0,-13.8,30.40,SSE,158,0.0,2.0,75,0.00,,,-99.99,Weather View 32 v60,2014-01-09 10:25:00,
2014-01-09 04:30:00,-8.0,-13.8,30.40,SSW,202,0.0,2.0,75,0.00,,,-99.99,Weather View 32 v60,2014-01-09 10:30:00,
2014-01-09 04:35:00,-8.0,-13.8,30.40,West,270,0.0,4.0,75,0.00,,,-99.99,Weather View 32 v60,2014-01-09 10:35:00,
2014-01-09 04:40:00,-8.0,-13.8,30.40,SSW,202,0.0,4.0,75,0.00,,,-99.99,Weather View 32 v60,2014-01-09 10:40:00,
2014-01-09 04:45:00,-10.0,-16.0,30.42,SSW,202,0.0,9.0,74,0.00,,,-99.99,Weather View 32 v60,2014-01-09 10:45:00,
2014-01-09 04:50:00,-7.0,-12.8,30.40,WSW,248,0.0,4.0,75,0.00,,,-99.99,Weather View 32 v60,2014-01-09 10:50:00,
2014-01-09 04:55:00,-7.0,-12.8,30.39,SSW,202,2.0,5.0,75,0.00,,,-99.99,Weather View 32 v60,2014-01-09 10:55:00,
2014-01-09 05:00:00,-9.0,-15.0,30.42,WNW,292,0.0,8.0,74,0.00,,,-99.99,Weather View 32 v60,2014-01-09 11:00:00,
2014-01-09 05:05:00,-6.0,-11.6,30.38,WSW,248,4.0,8.0,76,0.00,,,-99.99,Weather View 32 v60,2014-01-09 11:05:00,
2014-01-09 05:10:00,-5.0,-10.6,30.38,SSW,202,6.0,9.0,76,0.00,,,-99.99,Weather View 32 v60,2014-01-09 11:10:00,
2014-01-09 05:15:00,-4.0,-9.6,30.37,SSW,202,5.0,11.0,76,0.00,,,-99.99,Weather View 32 v60,2014-01-09 11:15:00,
2014-01-09 05:20:00,-4.0,-9.6,30.37,SSW,202,7.0,11.0,76,0.00,,,-99.99,Weather View 32 v60,2014-01-09 11:20:00,
2014-01-09 05:25:00,-3.0,-8.7,30.37,SSW,202,6.0,13.0,76,0.00,,,-99.99,Weather View 32 v60,2014-01-09 11:25:00,
2014-01-09 05:30:00,-3.0,-8.7,30.36,SW,225,5.0,13.0,76,0.00,,,-99.99,Weather View 32 v60,2014-01-09 11:30:00,
2014-01-09 05:35:00,-3.0,-8.7,30.35,SSW,202,5.0,13.0,76,0.00,,,-99.99,Weather View 32 v60,2014-01-09 11:35:00,
2014-01-09 05:40:00,-2.0,-8.0,30.35,South,180,5.0,13.0,75,0.00,,,-99.99,Weather View 32 v60,2014-01-09 11:40:00,
2014-01-09 05:45:00,-7.0,-12.8,30.40,SW,225,0.0,4.0,75,0.00,,,-99.99,Weather View 32 v60,2014-01-09 11:45:00,
2014-01-09 05:50:00,-2.0,-8.0,30.34,South,180,9.0,16.0,75,0.00,,,-99.99,Weather View 32 v60,2014-01-09 11:50:00,
2014-01-09 05:55:00,-2.0,-8.0,30.34,SW,225,6.0,16.0,75,0.00,,,-99.99,Weather View 32 v60,2014-01-09 11:55:00,
2014-01-09 06:00:00,-1.0,-7.3,30.34,SSW,202,3.0,16.0,74,0.00,,,-99.99,Weather View 32 v60,2014-01-09 12:00:00,
2014-01-09 06:05:00,-1.0,-7.3,30.34,SW,225,10.0,16.0,74,0.00,,,-99.99,Weather View 32 v60,2014-01-09 12:05:00,
2014-01-09 06:10:00,-1.0,-7.3,30.34,South,180,4.0,16.0,74,0.00,,,-99.99,Weather View 32 v60,2014-01-09 12:10:00,
2014-01-09 06:15:00,-1.0,-7.3,30.34,SSW,202,4.0,16.0,74,0.00,,,-99.99,Weather View 32 v60,2014-01-09 12:15:00,
2014-01-09 06:20:00,-1.0,-7.6,30.34,SSW,202,3.0,16.0,73,0.00,,,-99.99,Weather View 32 v60,2014-01-09 12:20:00,
2014-01-09 06:35:00,0.0,-6.6,30.33,SSW,202,3.0,16.0,73,0.00,,,-99.99,Weather View 32 v60,2014-01-09 12:35:00,
2014-01-09 06:45:00,-2.0,-8.0,30.34,SSW,202,7.0,16.0,75,0.00,,,-99.99,Weather View 32 v60,2014-01-09 12:45:00,
2014-01-09 06:50:00,0.0,-6.9,30.33,SW,225,5.0,13.0,72,0.00,,,-99.99,Weather View 32 v60,2014-01-09 12:50:00,
2014-01-09 06:55:00,1.0,-5.9,30.33,SSE,158,1.0,13.0,72,0.00,,,-99.99,Weather View 32 v60,2014-01-09 12:55:00,
2014-01-09 07:00:00,1.0,-5.9,30.32,SSW,202,4.0,13.0,72,0.00,,,-99.99,Weather View 32 v60,2014-01-09 13:00:00,
2014-01-09 07:05:00,1.0,-5.9,30.32,South,180,2.0,13.0,72,0.00,,,-99.99,Weather View 32 v60,2014-01-09 13:05:00,
2014-01-09 07:25:00,-1.0,-7.6,30.34,South,180,8.0,16.0,73,0.00,,,-99.99,Weather View 32 v60,2014-01-09 13:25:00,
2014-01-09 07:30:00,0.0,-6.6,30.33,SSW,202,6.0,16.0,73,0.00,,,-99.99,Weather View 32 v60,2014-01-09 13:30:00,
2014-01-09 07:35:00,2.0,-5.2,30.32,SSW,202,3.0,10.0,71,0.00,,,-99.99,Weather View 32 v60,2014-01-09 13:35:00,
2014-01-09 07:40:00,0.0,-6.6,30.33,SW,225,5.0,16.0,73,0.00,,,-99.99,Weather View 32 v60,2014-01-09 13:40:00,
2014-01-09 07:45:00,0.0,-6.6,30.33,SSW,202,3.0,13.0,73,0.00,,,-99.99,Weather View 32 v60,2014-01-09 13:45:00,
2014-01-09 08:03:00,1.0,-5.9,30.32,SSW,202,4.0,13.0,72,0.00,,,-99.99,Weather View 32 v60,2014-01-09 14:03:00,
2014-01-09 08:05:00,3.0,-4.6,30.31,South,180,7.0,13.0,70,0.00,,,-99.99,Weather View 32 v60,2014-01-09 14:05:00,
2014-01-09 08:10:00,1.0,-5.9,30.32,WSW,248,1.0,13.0,72,0.00,,,-99.99,Weather View 32 v60,2014-01-09 14:10:00,
2014-01-09 08:15:00,1.0,-5.9,30.32,SSW,202,5.0,13.0,72,0.00,,,-99.99,Weather View 32 v60,2014-01-09 14:15:00,
2014-01-09 08:20:00,1.0,-6.2,30.32,SW,225,3.0,11.0,71,0.00,,,-99.99,Weather View 32 v60,2014-01-09 14:20:00,
2014-01-09 08:40:00,2.0,-5.2,30.32,SSW,202,3.0,10.0,71,0.00,,,-99.99,Weather View 32 v60,2014-01-09 14:40:00,
2014-01-09 08:50:00,2.0,-5.5,30.32,SSW,202,4.0,13.0,70,0.00,,,-99.99,Weather View 32 v60,2014-01-09 14:50:00,
2014-01-09 08:55:00,3.0,-4.6,30.31,South,180,7.0,13.0,70,0.00,,,-99.99,Weather View 32 v60,2014-01-09 14:55:00,
2014-01-09 09:00:00,3.0,-4.6,30.31,SSW,202,7.0,13.0,70,0.00,,,-99.99,Weather View 32 v60,2014-01-09 15:00:00,
2014-01-09 09:10:00,5.0,-3.2,30.27,SSW,202,5.0,13.0,68,0.00,,,-99.99,Weather View 32 v60,2014-01-09 15:10:00,
2014-01-09 09:15:00,3.0,-4.9,30.30,South,180,5.0,14.0,69,0.00,,,-99.99,Weather View 32 v60,2014-01-09 15:15:00,
2014-01-09 09:20:00,3.0,-4.9,30.30,SSW,202,4.0,14.0,69,0.00,,,-99.99,Weather View 32 v60,2014-01-09 15:20:00,
2014-01-09 09:30:00,4.0,-3.9,30.28,SW,225,5.0,14.0,69,0.00,,,-99.99,Weather View 32 v60,2014-01-09 15:30:00,
2014-01-09 09:35:00,4.0,-3.9,30.28,SW,225,8.0,14.0,69,0.00,,,-99.99,Weather View 32 v60,2014-01-09 15:35:00,
2014-01-09 09:40:00,4.0,-4.2,30.28,SW,225,8.0,14.0,68,0.00,,,-99.99,Weather View 32 v60,2014-01-09 15:40:00,
2014-01-09 09:45:00,4.0,-4.2,30.28,SSW,202,9.0,14.0,68,0.00,,,-99.99,Weather View 32 v60,2014-01-09 15:45:00,
2014-01-09 09:55:00,4.0,-4.2,30.28,South,180,3.0,14.0,68,0.00,,,-99.99,Weather View 32 v60,2014-01-09 15:55:00,
2014-01-09 10:04:00,4.0,-4.2,30.28,SW,225,5.0,14.0,68,0.00,,,-99.99,Weather View 32 v60,2014-01-09 16:04:00,
2014-01-09 10:15:00,5.0,-3.2,30.27,South,180,8.0,13.0,68,0.00,,,-99.99,Weather View 32 v60,2014-01-09 16:15:00,
2014-01-09 10:25:00,5.0,-3.5,30.26,SSW,202,7.0,13.0,67,0.00,,,-99.99,Weather View 32 v60,2014-01-09 16:25:00,
2014-01-09 10:30:00,6.0,-2.6,30.26,SW,225,11.0,13.0,67,0.00,,,-99.99,Weather View 32 v60,2014-01-09 16:30:00,
2014-01-09 10:35:00,6.0,-2.6,30.25,SSW,202,10.0,13.0,67,0.00,,,-99.99,Weather View 32 v60,2014-01-09 16:35:00,
2014-01-09 10:40:00,10.0,0.3,30.22,South,180,6.0,14.0,64,0.00,,,-99.99,Weather View 32 v60,2014-01-09 16:40:00,
2014-01-09 10:45:00,7.0,-1.6,30.26,SSW,202,6.0,14.0,67,0.00,,,-99.99,Weather View 32 v60,2014-01-09 16:45:00,
2014-01-09 10:50:00,7.0,-2.0,30.26,SW,225,6.0,14.0,66,0.00,,,-99.99,Weather View 32 v60,2014-01-09 16:50:00,
2014-01-09 10:55:00,7.0,-2.0,30.26,SSW,202,6.0,14.0,66,0.00,,,-99.99,Weather View 32 v60,2014-01-09 16:55:00,
2014-01-09 11:05:00,8.0,-1.0,30.25,West,270,8.0,14.0,66,0.00,,,-99.99,Weather View 32 v60,2014-01-09 17:05:00,
2014-01-09 11:10:00,8.0,-1.3,30.24,SW,225,4.0,14.0,65,0.00,,,-99.99,Weather View 32 v60,2014-01-09 17:10:00,
2014-01-09 11:15:00,12.0,1.5,30.19,SW,225,4.0,17.0,62,0.00,,,-99.99,Weather View 32 v60,2014-01-09 17:15:00,
2014-01-09 11:20:00,9.0,-0.4,30.23,SSW,202,5.0,14.0,65,0.00,,,-99.99,Weather View 32 v60,2014-01-09 17:20:00,
2014-01-09 11:25:00,9.0,-0.4,30.22,SSW,202,6.0,14.0,65,0.00,,,-99.99,Weather View 32 v60,2014-01-09 17:25:00,
2014-01-09 11:30:00,10.0,0.6,30.22,SSW,202,5.0,14.0,65,0.00,,,-99.99,Weather View 32 v60,2014-01-09 17:30:00,
2014-01-09 11:35:00,10.0,0.3,30.22,South,180,7.0,14.0,64,0.00,,,-99.99,Weather View 32 v60,2014-01-09 17:35:00,
2014-01-09 11:45:00,11.0,1.2,30.21,SSW,202,3.0,14.0,64,0.00,,,-99.99,Weather View 32 v60,2014-01-09 17:45:00,
2014-01-09 11:50:00,11.0,0.9,30.21,South,180,6.0,14.0,63,0.00,,,-99.99,Weather View 32 v60,2014-01-09 17:50:00,
2014-01-09 11:55:00,13.0,2.1,30.17,SSW,202,8.0,18.0,61,0.00,,,-99.99,Weather View 32 v60,2014-01-09 17:55:00,
2014-01-09 11:56:00,11.0,0.9,30.21,SSW,202,8.0,14.0,63,0.00,,,-99.99,Weather View 32 v60,2014-01-09 17:56:00,
2014-01-09 12:20:00,12.0,1.5,30.19,WSW,248,3.0,17.0,62,0.00,,,-99.99,Weather View 32 v60,2014-01-09 18:20:00,
2014-01-09 12:25:00,12.0,1.5,30.19,SSW,202,6.0,17.0,62,0.00,,,-99.99,Weather View 32 v60,2014-01-09 18:25:00,
2014-01-09 12:30:00,12.0,1.5,30.19,WSW,248,7.0,17.0,62,0.00,,,-99.99,Weather View 32 v60,2014-01-09 18:30:00,
2014-01-09 12:35:00,12.0,1.5,30.18,SSW,202,8.0,17.0,62,0.00,,,-99.99,Weather View 32 v60,2014-01-09 18:35:00,
2014-01-09 12:45:00,12.0,1.5,30.18,WSW,248,4.0,17.0,62,0.00,,,-99.99,Weather View 32 v60,2014-01-09 18:45:00,
2014-01-09 12:50:00,12.0,1.1,30.17,SSW,202,5.0,17.0,61,0.00,,,-99.99,Weather View 32 v60,2014-01-09 18:50:00,
2014-01-09 13:00:00,13.0,2.1,30.17,SSW,202,8.0,18.0,61,0.00,,,-99.99,Weather View 32 v60,2014-01-09 19:00:00,
2014-01-09 13:05:00,13.0,2.1,30.16,SW,225,5.0,18.0,61,0.00,,,-99.99,Weather View 32 v60,2014-01-09 19:05:00,
2014-01-09 13:10:00,13.0,2.1,30.17,SW,225,6.0,18.0,61,0.00,,,-99.99,Weather View 32 v60,2014-01-09 19:10:00,
2014-01-09 13:20:00,13.0,2.1,30.16,SW,225,6.0,18.0,61,0.00,,,-99.99,Weather View 32 v60,2014-01-09 19:20:00,
2014-01-09 13:30:00,14.0,3.0,30.15,SSW,202,4.0,18.0,61,0.00,,,-99.99,Weather View 32 v60,2014-01-09 19:30:00,
2014-01-09 13:40:00,14.0,3.0,30.15,SSW,202,3.0,18.0,61,0.00,,,-99.99,Weather View 32 v60,2014-01-09 19:40:00,
2014-01-09 13:45:00,14.0,3.0,30.15,SW,225,5.0,18.0,61,0.00,,,-99.99,Weather View 32 v60,2014-01-09 19:45:00,
2014-01-09 13:55:00,14.0,3.0,30.14,SSW,202,5.0,15.0,61,0.00,,,-99.99,Weather View 32 v60,2014-01-09 19:55:00,
2014-01-09 14:00:00,14.0,3.0,30.14,South,180,5.0,15.0,61,0.00,,,-99.99,Weather View 32 v60,2014-01-09 20:00:00,
2014-01-09 14:10:00,15.0,4.0,30.14,SSW,202,10.0,16.0,61,0.00,,,-99.99,Weather View 32 v60,2014-01-09 20:10:00,
2014-01-09 14:20:00,15.0,3.6,30.13,SSW,202,8.0,16.0,60,0.00,,,-99.99,Weather View 32 v60,2014-01-09 20:20:00,
2014-01-09 14:30:00,14.0,3.0,30.13,South,180,6.0,16.0,61,0.00,,,-99.99,Weather View 32 v60,2014-01-09 20:30:00,
2014-01-09 14:40:00,14.0,3.0,30.13,SSW,202,5.0,16.0,61,0.00,,,-99.99,Weather View 32 v60,2014-01-09 20:40:00,
2014-01-09 14:55:00,15.0,4.3,30.13,South,180,6.0,16.0,62,0.00,,,-99.99,Weather View 32 v60,2014-01-09 20:55:00,
2014-01-09 15:00:00,15.0,4.3,30.12,SW,225,3.0,16.0,62,0.00,,,-99.99,Weather View 32 v60,2014-01-09 21:00:00,
2014-01-09 15:06:00,15.0,4.3,30.12,SSE,158,3.0,15.0,62,0.00,,,-99.99,Weather View 32 v60,2014-01-09 21:06:00,
2014-01-09 15:15:00,15.0,4.7,30.12,SSW,202,6.0,19.0,63,0.00,,,-99.99,Weather View 32 v60,2014-01-09 21:15:00,
2014-01-09 15:25:00,15.0,4.7,30.12,SSW,202,8.0,19.0,63,0.00,,,-99.99,Weather View 32 v60,2014-01-09 21:25:00,
2014-01-09 15:35:00,15.0,5.0,30.11,South,180,6.0,19.0,64,0.00,,,-99.99,Weather View 32 v60,2014-01-09 21:35:00,
2014-01-09 15:45:00,15.0,4.7,30.10,SSW,202,5.0,19.0,63,0.00,,,-99.99,Weather View 32 v60,2014-01-09 21:45:00,
2014-01-09 15:55:00,14.0,3.7,30.10,South,180,6.0,19.0,63,0.00,,,-99.99,Weather View 32 v60,2014-01-09 21:55:00,
2014-01-09 16:05:00,14.0,4.1,30.10,SSW,202,8.0,19.0,64,0.00,,,-99.99,Weather View 32 v60,2014-01-09 22:05:00,
2014-01-09 16:15:00,14.0,4.1,30.09,SSW,202,7.0,16.0,64,0.00,,,-99.99,Weather View 32 v60,2014-01-09 22:15:00,
2014-01-09 16:25:00,14.0,4.4,30.09,SSW,202,4.0,16.0,65,0.00,,,-99.99,Weather View 32 v60,2014-01-09 22:25:00,
2014-01-09 16:35:00,13.0,3.8,30.09,SSW,202,3.0,16.0,66,0.00,,,-99.99,Weather View 32 v60,2014-01-09 22:35:00,
2014-01-09 16:45:00,13.0,3.8,30.08,SW,225,8.0,16.0,66,0.00,,,-99.99,Weather View 32 v60,2014-01-09 22:45:00,
2014-01-09 17:29:00,14.0,5.7,30.06,SSW,202,9.0,14.0,69,0.00,,,-99.99,Weather View 32 v60,2014-01-09 23:29:00,
2014-01-09 17:40:00,14.0,6.0,30.06,SSW,202,5.0,14.0,70,0.00,,,-99.99,Weather View 32 v60,2014-01-09 23:40:00,
2014-01-09 18:20:00,15.0,7.6,30.04,South,180,5.0,16.0,72,0.00,,,-99.99,Weather View 32 v60,2014-01-10 00:20:00,
2014-01-09 18:30:00,15.0,7.6,30.04,SSW,202,5.0,16.0,72,0.00,,,-99.99,Weather View 32 v60,2014-01-10 00:30:00,
2014-01-09 18:40:00,15.0,7.6,30.04,South,180,13.0,16.0,72,0.00,,,-99.99,Weather View 32 v60,2014-01-10 00:40:00,
2014-01-09 18:45:00,15.0,7.6,30.04,SW,225,4.0,16.0,72,0.00,,,-99.99,Weather View 32 v60,2014-01-10 00:45:00,
2014-01-09 18:50:00,15.0,7.6,30.04,SSW,202,3.0,16.0,72,0.00,,,-99.99,Weather View 32 v60,2014-01-10 00:50:00,
2014-01-09 18:55:00,15.0,7.3,30.04,SSW,202,8.0,15.0,71,0.00,,,-99.99,Weather View 32 v60,2014-01-10 00:55:00,
2014-01-09 19:05:00,15.0,7.3,30.04,SW,225,5.0,15.0,71,0.00,,,-99.99,Weather View 32 v60,2014-01-10 01:05:00,
2014-01-09 19:10:00,15.0,7.3,30.04,SSW,202,4.0,15.0,71,0.00,,,-99.99,Weather View 32 v60,2014-01-10 01:10:00,
2014-01-09 19:15:00,15.0,7.3,30.04,SSE,158,3.0,15.0,71,0.00,,,-99.99,Weather View 32 v60,2014-01-10 01:15:00,
2014-01-09 19:20:00,15.0,7.3,30.04,South,180,4.0,15.0,71,0.00,,,-99.99,Weather View 32 v60,2014-01-10 01:20:00,
2014-01-09 19:25:00,14.0,6.3,30.04,SSW,202,4.0,15.0,71,0.00,,,-99.99,Weather View 32 v60,2014-01-10 01:25:00,
2014-01-09 19:30:00,14.0,6.3,30.04,South,180,4.0,15.0,71,0.00,,,-99.99,Weather View 32 v60,2014-01-10 01:30:00,
2014-01-09 19:40:00,14.0,6.3,30.04,SSW,202,2.0,14.0,71,0.00,,,-99.99,Weather View 32 v60,2014-01-10 01:40:00,
2014-01-09 19:45:00,14.0,6.3,30.04,WSW,248,2.0,13.0,71,0.00,,,-99.99,Weather View 32 v60,2014-01-10 01:45:00,
2014-01-09 19:55:00,14.0,6.6,30.04,SSW,202,6.0,13.0,72,0.00,,,-99.99,Weather View 32 v60,2014-01-10 01:55:00,
2014-01-09 20:00:00,14.0,6.6,30.03,SSW,202,8.0,14.0,72,0.00,,,-99.99,Weather View 32 v60,2014-01-10 02:00:00,
2014-01-09 20:05:00,15.0,7.6,30.03,WSW,248,3.0,15.0,72,0.00,,,-99.99,Weather View 32 v60,2014-01-10 02:05:00,
2014-01-09 20:10:00,15.0,7.6,30.03,SSW,202,5.0,15.0,72,0.00,,,-99.99,Weather View 32 v60,2014-01-10 02:10:00,
2014-01-09 20:20:00,15.0,7.6,30.03,SSW,202,8.0,15.0,72,0.00,,,-99.99,Weather View 32 v60,2014-01-10 02:20:00,
2014-01-09 20:25:00,15.0,7.6,30.03,SW,225,2.0,15.0,72,0.00,,,-99.99,Weather View 32 v60,2014-01-10 02:25:00,
2014-01-09 20:30:00,15.0,7.6,30.03,SSW,202,4.0,15.0,72,0.00,,,-99.99,Weather View 32 v60,2014-01-10 02:30:00,
2014-01-09 20:35:00,15.0,7.6,30.03,WSW,248,6.0,15.0,72,0.00,,,-99.99,Weather View 32 v60,2014-01-10 02:35:00,
2014-01-09 20:45:00,15.0,7.9,30.03,SSW,202,4.0,15.0,73,0.00,,,-99.99,Weather View 32 v60,2014-01-10 02:45:00,
2014-01-09 20:50:00,15.0,7.9,30.03,SSW,202,5.0,15.0,73,0.00,,,-99.99,Weather View 32 v60,2014-01-10 02:50:00,
2014-01-09 20:55:00,15.0,7.9,30.02,SE,135,4.0,15.0,73,0.00,,,-99.99,Weather View 32 v60,2014-01-10 02:55:00,
2014-01-09 21:00:00,15.0,7.9,30.03,South,180,5.0,15.0,73,0.00,,,-99.99,Weather View 32 v60,2014-01-10 03:00:00,
2014-01-09 21:10:00,15.0,7.9,30.02,SW,225,2.0,12.0,73,0.00,,,-99.99,Weather View 32 v60,2014-01-10 03:10:00,
2014-01-09 21:15:00,15.0,8.2,30.02,SW,225,9.0,12.0,74,0.00,,,-99.99,Weather View 32 v60,2014-01-10 03:15:00,
2014-01-09 21:20:00,15.0,8.2,30.02,SSW,202,5.0,12.0,74,0.00,,,-99.99,Weather View 32 v60,2014-01-10 03:20:00,
2014-01-09 21:25:00,15.0,8.2,30.02,South,180,6.0,13.0,74,0.00,,,-99.99,Weather View 32 v60,2014-01-10 03:25:00,
2014-01-09 21:30:00,15.0,8.2,30.02,SSW,202,9.0,13.0,74,0.00,,,-99.99,Weather View 32 v60,2014-01-10 03:30:00,
2014-01-09 21:40:00,15.0,8.5,30.02,WSW,248,12.0,14.0,75,0.00,,,-99.99,Weather View 32 v60,2014-01-10 03:40:00,
2014-01-09 21:45:00,15.0,8.5,30.02,SSW,202,8.0,14.0,75,0.00,,,-99.99,Weather View 32 v60,2014-01-10 03:45:00,
2014-01-09 21:55:00,15.0,8.8,30.01,South,180,7.0,14.0,76,0.00,,,-99.99,Weather View 32 v60,2014-01-10 03:55:00,
2014-01-09 22:00:00,15.0,8.8,30.01,South,180,5.0,14.0,76,0.00,,,-99.99,Weather View 32 v60,2014-01-10 04:00:00,
2014-01-09 22:05:00,15.0,8.8,30.02,SW,225,6.0,14.0,76,0.00,,,-99.99,Weather View 32 v60,2014-01-10 04:05:00,
2014-01-09 22:10:00,15.0,8.8,30.01,SW,225,6.0,14.0,76,0.00,,,-99.99,Weather View 32 v60,2014-01-10 04:10:00,
2014-01-09 22:15:00,15.0,9.1,30.01,SW,225,3.0,14.0,77,0.00,,,-99.99,Weather View 32 v60,2014-01-10 04:15:00,
2014-01-09 22:20:00,15.0,9.1,30.01,WSW,248,3.0,14.0,77,0.00,,,-99.99,Weather View 32 v60,2014-01-10 04:20:00,
2014-01-09 22:25:00,15.0,9.1,30.01,West,270,3.0,14.0,77,0.00,,,-99.99,Weather View 32 v60,2014-01-10 04:25:00,
2014-01-09 22:30:00,15.0,9.1,30.01,SSE,158,4.0,14.0,77,0.00,,,-99.99,Weather View 32 v60,2014-01-10 04:30:00,
2014-01-09 22:35:00,15.0,9.1,30.01,WSW,248,4.0,14.0,77,0.00,,,-99.99,Weather View 32 v60,2014-01-10 04:35:00,
2014-01-09 22:40:00,16.0,10.6,29.99,SSW,202,11.0,15.0,79,0.00,,,-99.99,Weather View 32 v60,2014-01-10 04:40:00,
2014-01-09 22:45:00,15.0,9.4,30.01,SW,225,10.0,14.0,78,0.00,,,-99.99,Weather View 32 v60,2014-01-10 04:45:00,
2014-01-09 22:50:00,15.0,9.4,30.01,SW,225,7.0,14.0,78,0.00,,,-99.99,Weather View 32 v60,2014-01-10 04:50:00,
2014-01-09 22:55:00,16.0,10.9,29.99,WSW,248,13.0,16.0,80,0.00,,,-99.99,Weather View 32 v60,2014-01-10 04:55:00,
2014-01-09 23:00:00,16.0,10.4,30.01,South,180,10.0,13.0,78,0.00,,,-99.99,Weather View 32 v60,2014-01-10 05:00:00,
2014-01-09 23:05:00,17.0,11.9,29.98,SSW,202,5.0,16.0,80,0.00,,,-99.99,Weather View 32 v60,2014-01-10 05:05:00,
2014-01-09 23:10:00,17.0,11.9,29.98,SSW,202,5.0,16.0,80,0.00,,,-99.99,Weather View 32 v60,2014-01-10 05:10:00,
2014-01-09 23:15:00,17.0,11.9,29.98,SW,225,8.0,16.0,80,0.00,,,-99.99,Weather View 32 v60,2014-01-10 05:15:00,
2014-01-09 23:20:00,17.0,11.9,29.98,SW,225,7.0,16.0,80,0.00,,,-99.99,Weather View 32 v60,2014-01-10 05:20:00,
2014-01-09 23:25:00,17.0,11.9,29.98,SSW,202,5.0,16.0,80,0.00,,,-99.99,Weather View 32 v60,2014-01-10 05:25:00,
2014-01-09 23:30:00,17.0,11.9,29.98,South,180,5.0,16.0,80,0.00,,,-99.99,Weather View 32 v60,2014-01-10 05:30:00,
2014-01-09 23:35:00,17.0,12.2,29.97,SW,225,3.0,16.0,81,0.00,,,-99.99,Weather View 32 v60,2014-01-10 05:35:00,
2014-01-09 23:40:00,17.0,12.2,29.97,SW,225,6.0,16.0,81,0.00,,,-99.99,Weather View 32 v60,2014-01-10 05:40:00,
2014-01-09 23:45:00,17.0,12.2,29.97,SSW,202,13.0,16.0,81,0.00,,,-99.99,Weather View 32 v60,2014-01-10 05:45:00,
2014-01-09 23:50:00,17.0,12.2,29.97,SSW,202,6.0,16.0,81,0.00,,,-99.99,Weather View 32 v60,2014-01-10 05:50:00,
2014-01-09 23:55:00,17.0,12.2,29.97,SW,225,11.0,16.0,81,0.00,,,-99.99,Weather View 32 v60,2014-01-10 05:55:00,